createdAt,value
2023-04-27T00:01:16.671Z,7.08
2023-04-27T00:03:46.003Z,7.11
2023-04-27T00:06:12.997Z,6.97
2023-04-27T00:08:39.700Z,6.85
2023-04-27T00:11:06.709Z,7.11
2023-04-27T00:13:33.450Z,7.00
2023-04-27T00:16:03.675Z,7.16
2023-04-27T00:18:31.276Z,6.99
2023-04-27T00:20:58.668Z,6.96
2023-04-27T00:23:26.330Z,6.65
2023-04-27T00:25:53.002Z,6.80
2023-04-27T00:28:19.766Z,6.74
2023-04-27T00:30:46.655Z,6.55
2023-04-27T00:33:13.428Z,6.62
2023-04-27T00:35:40.077Z,6.56
2023-04-27T00:38:06.737Z,6.91
2023-04-27T00:40:33.353Z,6.97
2023-04-27T00:43:00.019Z,6.86
2023-04-27T00:45:26.663Z,6.87
2023-04-27T00:47:53.639Z,6.73
2023-04-27T00:50:29.550Z,6.86
2023-04-27T00:52:56.842Z,7.05
2023-04-27T00:55:24.549Z,6.88
2023-04-27T00:57:51.900Z,6.62
2023-04-27T01:00:18.712Z,6.88
2023-04-27T01:02:46.196Z,6.82
2023-04-27T01:05:13.528Z,6.76
2023-04-27T01:07:41.062Z,6.70
2023-04-27T01:10:08.517Z,6.47
2023-04-27T01:12:35.224Z,6.66
2023-04-27T01:15:01.956Z,6.44
2023-04-27T01:17:28.676Z,6.41
2023-04-27T01:19:56.867Z,6.35
2023-04-27T01:22:23.576Z,6.45
2023-04-27T01:24:50.241Z,6.42
2023-04-27T01:27:16.925Z,6.21
2023-04-27T01:29:44.641Z,6.33
2023-04-27T01:32:12.557Z,6.48
2023-04-27T01:34:39.303Z,6.38
2023-04-27T01:37:06.078Z,6.43
2023-04-27T01:39:32.927Z,6.15
2023-04-27T01:41:59.624Z,6.31
2023-04-27T01:44:26.423Z,6.32
2023-04-27T01:46:53.141Z,6.33
2023-04-27T01:49:19.908Z,6.20
2023-04-27T01:51:46.741Z,6.22
2023-04-27T01:54:13.441Z,6.28
2023-04-27T01:56:40.180Z,6.24
2023-04-27T01:59:06.932Z,6.15
2023-04-27T02:01:33.665Z,6.10
2023-04-27T02:04:00.571Z,6.19
2023-04-27T02:06:27.863Z,6.02
2023-04-27T02:08:54.511Z,5.70
2023-04-27T02:11:21.736Z,5.90
2023-04-27T02:13:48.958Z,6.06
2023-04-27T02:16:15.784Z,6.06
2023-04-27T02:18:42.917Z,5.98
2023-04-27T02:21:10.912Z,5.60
2023-04-27T02:23:37.892Z,5.98
2023-04-27T02:26:04.696Z,5.62
2023-04-27T02:28:32.352Z,5.93
2023-04-27T02:30:59.444Z,5.59
2023-04-27T02:33:26.109Z,5.73
2023-04-27T02:35:52.786Z,5.77
2023-04-27T02:38:19.441Z,5.64
2023-04-27T02:40:46.129Z,5.65
2023-04-27T02:43:12.776Z,5.59
2023-04-27T02:45:39.441Z,5.68
2023-04-27T02:48:06.510Z,5.73
2023-04-27T02:50:33.157Z,5.79
2023-04-27T02:52:59.911Z,5.67
2023-04-27T02:55:27.715Z,5.63
2023-04-27T02:57:54.382Z,5.65
2023-04-27T03:00:21.116Z,5.72
2023-04-27T03:02:47.901Z,5.41
2023-04-27T03:05:14.727Z,5.67
2023-04-27T03:07:41.410Z,5.39
2023-04-27T03:10:08.459Z,5.63
2023-04-27T03:12:35.286Z,5.64
2023-04-27T03:15:02.073Z,5.63
2023-04-27T03:17:29.047Z,5.62
2023-04-27T03:19:55.798Z,5.38
2023-04-27T03:22:22.467Z,5.19
2023-04-27T03:24:49.227Z,5.65
2023-04-27T03:27:15.889Z,5.74
2023-04-27T03:29:42.535Z,5.54
2023-04-27T03:32:09.254Z,5.70
2023-04-27T03:34:36.948Z,5.68
2023-04-27T03:37:03.655Z,5.75
2023-04-27T03:39:30.385Z,5.49
2023-04-27T03:41:57.681Z,5.67
2023-04-27T03:44:24.499Z,5.73
2023-04-27T03:46:51.458Z,5.39
2023-04-27T03:49:18.087Z,5.92
2023-04-27T03:51:44.745Z,5.73
2023-04-27T03:54:11.656Z,5.54
2023-04-27T03:56:38.320Z,5.61
2023-04-27T03:59:05.339Z,5.83
2023-04-27T04:01:32.236Z,5.79
2023-04-27T04:03:59.116Z,5.57
2023-04-27T04:06:26.232Z,5.85
2023-04-27T04:08:52.904Z,5.88
2023-04-27T04:11:19.557Z,5.70
2023-04-27T04:13:47.466Z,5.80
2023-04-27T04:16:14.204Z,5.70
2023-04-27T04:18:41.009Z,5.83
2023-04-27T04:21:10.144Z,5.90
2023-04-27T04:23:37.730Z,6.19
2023-04-27T04:26:05.679Z,6.33
2023-04-27T04:28:32.471Z,6.01
2023-04-27T04:31:01.228Z,6.08
2023-04-27T04:33:28.369Z,6.14
2023-04-27T04:35:55.054Z,6.38
2023-04-27T04:38:21.774Z,6.18
2023-04-27T04:40:48.638Z,6.51
2023-04-27T04:43:15.443Z,6.18
2023-04-27T04:45:42.846Z,6.23
2023-04-27T04:48:10.420Z,6.55
2023-04-27T04:50:37.173Z,6.59
2023-04-27T04:53:03.869Z,6.34
2023-04-27T04:55:30.710Z,6.19
2023-04-27T04:57:57.380Z,6.40
2023-04-27T05:00:24.357Z,6.65
2023-04-27T05:02:51.299Z,6.54
2023-04-27T05:05:18.136Z,6.33
2023-04-27T05:07:45.041Z,6.30
2023-04-27T05:10:11.916Z,6.38
2023-04-27T05:12:38.822Z,6.39
2023-04-27T05:15:06.072Z,6.51
2023-04-27T05:17:32.814Z,6.27
2023-04-27T05:19:59.592Z,6.44
2023-04-27T05:22:26.384Z,6.41
2023-04-27T05:24:53.062Z,6.45
2023-04-27T05:27:19.696Z,6.58
2023-04-27T05:29:46.399Z,6.54
2023-04-27T05:32:13.106Z,6.49
2023-04-27T05:34:39.852Z,6.11
2023-04-27T05:37:06.703Z,6.48
2023-04-27T05:39:33.484Z,6.30
2023-04-27T05:42:00.142Z,6.38
2023-04-27T05:44:29.511Z,6.41
2023-04-27T05:46:56.484Z,6.43
2023-04-27T05:49:23.591Z,6.59
2023-04-27T05:51:50.369Z,6.61
2023-04-27T05:54:17.002Z,6.55
2023-04-27T05:56:43.682Z,6.43
2023-04-27T05:59:10.410Z,6.51
2023-04-27T06:01:37.120Z,6.30
2023-04-27T06:04:04.299Z,6.35
2023-04-27T06:06:33.115Z,6.57
2023-04-27T06:09:00.031Z,6.77
2023-04-27T06:11:26.957Z,6.75
2023-04-27T06:13:53.800Z,6.75
2023-04-27T06:16:21.356Z,6.75
2023-04-27T06:18:50.044Z,6.82
2023-04-27T06:21:17.904Z,7.02
2023-04-27T06:23:44.784Z,6.73
2023-04-27T06:26:11.693Z,6.43
2023-04-27T06:28:38.524Z,6.57
2023-04-27T06:31:06.383Z,6.89
2023-04-27T06:33:33.641Z,6.70
2023-04-27T06:36:01.459Z,6.99
2023-04-27T06:38:28.529Z,6.49
2023-04-27T06:40:55.218Z,6.65
2023-04-27T06:43:22.398Z,6.36
2023-04-27T06:45:49.108Z,6.36
2023-04-27T06:48:15.996Z,6.69
2023-04-27T06:50:43.412Z,7.19
2023-04-27T06:53:10.657Z,6.87
2023-04-27T06:55:37.307Z,6.89
2023-04-27T06:58:04.556Z,6.95
2023-04-27T07:00:32.029Z,6.98
2023-04-27T07:02:59.003Z,6.82
2023-04-27T07:05:26.478Z,6.78
2023-04-27T07:07:53.321Z,6.98
2023-04-27T07:10:20.287Z,6.92
2023-04-27T07:12:49.129Z,6.89
2023-04-27T07:15:15.948Z,7.12
2023-04-27T07:17:42.711Z,7.05
2023-04-27T07:20:09.612Z,7.15
2023-04-27T07:22:36.516Z,6.95
2023-04-27T07:25:04.055Z,6.84
2023-04-27T07:27:32.036Z,6.83
2023-04-27T07:29:59.232Z,7.22
2023-04-27T07:32:26.347Z,6.86
2023-04-27T07:34:55.635Z,6.96
2023-04-27T07:37:22.970Z,6.74
2023-04-27T07:39:52.140Z,6.70
2023-04-27T07:42:20.047Z,6.81
2023-04-27T07:44:47.477Z,6.67
2023-04-27T07:47:14.524Z,6.92
2023-04-27T07:49:41.271Z,7.10
2023-04-27T07:52:08.418Z,7.05
2023-04-27T07:54:35.367Z,7.26
2023-04-27T07:57:02.425Z,6.95
2023-04-27T07:59:30.316Z,6.97
2023-04-27T08:02:07.018Z,7.00
2023-04-27T08:04:44.302Z,6.84
2023-04-27T08:07:11.754Z,6.59
2023-04-27T08:09:38.674Z,6.76
2023-04-27T08:12:06.208Z,6.93
2023-04-27T08:14:35.449Z,6.96
2023-04-27T08:17:02.642Z,7.08
2023-04-27T08:19:29.454Z,6.70
2023-04-27T08:21:56.227Z,7.02
2023-04-27T08:24:22.890Z,7.13
2023-04-27T08:26:49.623Z,7.36
2023-04-27T08:29:26.959Z,6.95
2023-04-27T08:31:56.914Z,6.99
2023-04-27T08:34:24.114Z,7.15
2023-04-27T08:36:51.091Z,6.97
2023-04-27T08:39:18.494Z,7.18
2023-04-27T08:41:45.562Z,7.02
2023-04-27T08:44:12.344Z,7.59
2023-04-27T08:46:39.911Z,7.23
2023-04-27T08:49:10.104Z,7.32
2023-04-27T08:51:36.910Z,6.98
2023-04-27T08:54:03.793Z,6.79
2023-04-27T08:56:31.160Z,7.38
2023-04-27T08:58:59.136Z,7.25
2023-04-27T09:01:29.118Z,7.40
2023-04-27T09:03:58.201Z,6.86
2023-04-27T09:06:32.792Z,7.73
2023-04-27T09:09:00.117Z,7.47
2023-04-27T09:11:31.891Z,7.70
2023-04-27T09:14:00.326Z,7.44
2023-04-27T09:16:29.342Z,7.36
2023-04-27T09:18:57.469Z,7.16
2023-04-27T09:21:29.676Z,7.20
2023-04-27T09:23:56.821Z,7.01
2023-04-27T09:26:26.978Z,7.09
2023-04-27T09:28:58.616Z,7.63
2023-04-27T09:31:37.097Z,7.34
2023-04-27T09:34:04.307Z,6.86
2023-04-27T09:36:33.202Z,7.03
2023-04-27T09:39:04.808Z,7.20
2023-04-27T09:41:32.873Z,6.96
2023-04-27T09:44:01.690Z,6.99
2023-04-27T09:46:29.622Z,7.17
2023-04-27T09:48:56.796Z,7.17
2023-04-27T09:51:23.480Z,6.68
2023-04-27T09:53:54.167Z,7.08
2023-04-27T09:56:32.886Z,7.70
2023-04-27T09:59:08.749Z,7.70
2023-04-27T10:01:41.971Z,6.95
2023-04-27T10:04:45.732Z,7.51
2023-04-27T10:07:14.492Z,7.11
2023-04-27T10:09:43.648Z,6.82
2023-04-27T10:12:36.458Z,7.63
2023-04-27T10:15:13.324Z,7.38
2023-04-27T10:17:49.162Z,7.87
2023-04-27T10:20:16.627Z,8.19
2023-04-27T10:22:48.220Z,7.78
2023-04-27T10:25:21.742Z,7.97
2023-04-27T10:27:57.874Z,8.07
2023-04-27T10:30:27.587Z,7.87
2023-04-27T10:32:56.841Z,7.73
2023-04-27T10:35:45.968Z,7.70
2023-04-27T10:38:17.706Z,7.64
2023-04-27T10:40:46.679Z,7.68
2023-04-27T10:43:16.264Z,7.43
2023-04-27T10:45:43.908Z,7.42
2023-04-27T10:48:16.954Z,7.13
2023-04-27T10:50:47.006Z,7.44
2023-04-27T10:53:17.557Z,7.45
2023-04-27T10:55:44.242Z,7.71
2023-04-27T10:58:11.035Z,7.60
2023-04-27T11:00:44.661Z,7.82
2023-04-27T11:03:24.169Z,8.10
2023-04-27T11:06:03.065Z,8.13
2023-04-27T11:08:30.879Z,7.51
2023-04-27T11:10:57.795Z,7.21
2023-04-27T11:13:26.511Z,7.84
2023-04-27T11:15:58.155Z,7.77
2023-04-27T11:18:29.309Z,7.96
2023-04-27T11:21:07.736Z,7.52
2023-04-27T11:23:38.615Z,7.83
2023-04-27T11:26:17.020Z,7.67
2023-04-27T11:28:59.893Z,7.74
2023-04-27T11:31:27.596Z,7.18
2023-04-27T11:33:55.974Z,7.22
2023-04-27T11:36:24.523Z,7.52
2023-04-27T11:38:51.190Z,7.60
2023-04-27T11:41:17.994Z,7.60
2023-04-27T11:43:51.384Z,7.44
2023-04-27T11:46:22.395Z,7.78
2023-04-27T11:48:49.431Z,7.52
2023-04-27T11:51:16.212Z,7.94
2023-04-27T11:53:48.244Z,7.60
2023-04-27T11:56:14.889Z,7.83
2023-04-27T11:58:42.580Z,8.13
2023-04-27T12:01:12.039Z,7.51
2023-04-27T12:03:39.151Z,8.40
2023-04-27T12:06:27.780Z,8.24
2023-04-27T12:08:53.414Z,7.90
2023-04-27T12:11:20.916Z,8.49
2023-04-27T12:13:48.292Z,7.97
2023-04-27T12:16:15.018Z,7.38
2023-04-27T12:18:41.817Z,8.04
2023-04-27T12:21:08.755Z,8.05
2023-04-27T12:23:35.687Z,7.76
2023-04-27T12:26:03.108Z,7.86
2023-04-27T12:28:29.957Z,7.94
2023-04-27T12:30:56.919Z,7.70
2023-04-27T12:33:23.729Z,8.25
2023-04-27T12:35:50.620Z,8.09
2023-04-27T12:38:17.302Z,7.85
2023-04-27T12:40:44.017Z,7.78
2023-04-27T12:43:11.097Z,7.90
2023-04-27T12:45:37.756Z,7.68
2023-04-27T12:48:04.724Z,7.47
2023-04-27T12:50:34.398Z,7.48
2023-04-27T12:53:01.355Z,7.27
2023-04-27T12:57:58.380Z,7.39
2023-04-27T13:00:25.601Z,7.27
2023-04-27T13:02:53.103Z,7.56
2023-04-27T13:05:21.087Z,7.71
2023-04-27T13:07:48.020Z,7.53
2023-04-27T13:10:14.872Z,7.58
2023-04-27T13:12:41.675Z,7.50
2023-04-27T13:15:09.299Z,7.46
2023-04-27T13:17:36.186Z,7.84
2023-04-27T13:20:03.299Z,7.96
2023-04-27T13:22:30.041Z,7.48
2023-04-27T13:24:56.811Z,7.60
2023-04-27T13:27:25.341Z,7.35
2023-04-27T13:29:52.226Z,7.74
2023-04-27T13:32:18.941Z,7.55
2023-04-27T13:34:45.816Z,7.49
2023-04-27T13:37:12.555Z,7.87
2023-04-27T13:39:39.259Z,7.49
2023-04-27T13:42:06.630Z,7.63
2023-04-27T13:44:33.751Z,7.56
2023-04-27T13:47:00.581Z,7.33
2023-04-27T13:49:27.313Z,7.78
2023-04-27T13:51:53.994Z,7.29
2023-04-27T13:54:21.656Z,7.59
2023-04-27T13:56:48.538Z,7.38
2023-04-27T13:59:16.751Z,8.14
2023-04-27T14:01:43.705Z,7.73
2023-04-27T14:04:10.852Z,7.83
2023-04-27T14:06:37.787Z,8.01
2023-04-27T14:09:04.662Z,7.67
2023-04-27T14:11:35.348Z,7.94
2023-04-27T14:14:06.822Z,8.10
2023-04-27T14:16:33.588Z,8.09
2023-04-27T14:19:00.338Z,8.17
2023-04-27T14:21:28.178Z,8.06
2023-04-27T14:23:54.916Z,8.12
2023-04-27T14:26:22.062Z,8.01
2023-04-27T14:28:48.800Z,7.84
2023-04-27T14:31:16.116Z,7.98
2023-04-27T14:33:42.811Z,8.21
2023-04-27T14:36:09.800Z,8.35
2023-04-27T14:38:36.482Z,8.15
2023-04-27T14:41:03.218Z,8.07
2023-04-27T14:43:29.921Z,8.05
2023-04-27T14:46:08.149Z,8.00
2023-04-27T14:48:43.666Z,7.91
2023-04-27T14:51:11.177Z,7.97
2023-04-27T14:53:37.981Z,8.44
2023-04-27T14:56:05.268Z,8.50
2023-04-27T14:58:34.981Z,8.14
2023-04-27T15:01:02.061Z,8.72
2023-04-27T15:03:28.949Z,8.24
2023-04-27T15:05:56.005Z,8.12
2023-04-27T15:08:22.814Z,8.40
2023-04-27T15:10:49.733Z,8.40
2023-04-27T15:13:16.926Z,8.35
2023-04-27T15:15:46.783Z,8.50
2023-04-27T15:18:13.562Z,8.14
2023-04-27T15:20:40.345Z,8.08
2023-04-27T15:23:07.014Z,8.65
2023-04-27T15:25:33.828Z,8.30
2023-04-27T15:28:03.226Z,8.24
2023-04-27T15:30:30.101Z,8.31
2023-04-27T15:32:57.009Z,8.29
2023-04-27T15:35:23.969Z,8.22
2023-04-27T15:37:52.249Z,8.61
2023-04-27T15:40:19.158Z,8.69
2023-04-27T15:42:46.093Z,8.24
2023-04-27T15:45:12.862Z,8.13
2023-04-27T15:47:39.672Z,8.64
2023-04-27T15:50:06.826Z,8.67
2023-04-27T15:52:33.997Z,8.30
2023-04-27T15:55:06.787Z,8.47
2023-04-27T15:57:33.581Z,8.65
2023-04-27T16:00:00.588Z,8.50
2023-04-27T16:02:27.582Z,8.38
2023-04-27T16:04:56.395Z,8.29
2023-04-27T16:07:23.167Z,8.55
2023-04-27T16:09:50.032Z,8.30
2023-04-27T16:12:17.032Z,8.53
2023-04-27T16:14:43.749Z,8.18
2023-04-27T16:17:10.876Z,8.25
2023-04-27T16:19:37.534Z,8.08
2023-04-27T16:22:04.380Z,8.32
2023-04-27T16:24:31.505Z,8.44
2023-04-27T16:26:58.373Z,8.34
2023-04-27T16:31:53.265Z,8.36
2023-04-27T16:34:20.075Z,8.37
2023-04-27T16:36:48.566Z,8.50
2023-04-27T16:39:16.192Z,8.29
2023-04-27T16:41:43.346Z,8.00
2023-04-27T16:44:11.655Z,8.28
2023-04-27T16:46:38.396Z,8.13
2023-04-27T16:49:05.232Z,8.21
2023-04-27T16:51:32.270Z,8.12
2023-04-27T16:53:59.520Z,7.91
2023-04-27T16:56:31.592Z,8.33
2023-04-27T16:58:59.010Z,8.57
2023-04-27T17:01:29.011Z,8.09
2023-04-27T17:04:01.186Z,8.36
2023-04-27T17:06:28.659Z,8.03
2023-04-27T17:08:56.431Z,8.06
2023-04-27T17:11:23.248Z,7.86
2023-04-27T17:13:50.573Z,8.61
2023-04-27T17:16:18.153Z,8.08
2023-04-27T17:18:46.574Z,8.55
2023-04-27T17:21:13.440Z,8.54
2023-04-27T17:23:41.572Z,8.24
2023-04-27T17:26:08.623Z,8.73
2023-04-27T17:28:35.324Z,8.40
2023-04-27T17:31:02.181Z,8.32
2023-04-27T17:33:28.862Z,8.17
2023-04-27T17:35:55.718Z,8.42
2023-04-27T17:38:22.385Z,8.25
2023-04-27T17:40:49.094Z,8.08
2023-04-27T17:43:15.803Z,8.65
2023-04-27T17:45:42.893Z,8.24
2023-04-27T17:48:09.672Z,8.57
2023-04-27T17:50:38.273Z,8.14
2023-04-27T17:53:04.970Z,7.93
2023-04-27T17:55:31.748Z,7.94
2023-04-27T17:57:58.445Z,8.29
2023-04-27T18:00:25.200Z,8.29
2023-04-27T18:02:52.043Z,8.38
2023-04-27T18:05:18.918Z,7.79
2023-04-27T18:07:46.806Z,8.58
2023-04-27T18:10:13.845Z,7.97
2023-04-27T18:12:40.509Z,8.10
2023-04-27T18:15:09.663Z,8.11
2023-04-27T18:17:36.891Z,7.90
2023-04-27T18:20:09.551Z,8.31
2023-04-27T18:22:39.485Z,8.17
2023-04-27T18:25:06.840Z,8.00
2023-04-27T18:27:33.527Z,8.30
2023-04-27T18:30:00.220Z,7.96
2023-04-27T18:32:26.893Z,8.04
2023-04-27T18:34:54.046Z,8.10
2023-04-27T18:37:20.944Z,8.21
2023-04-27T18:39:47.672Z,8.17
2023-04-27T18:42:14.459Z,8.09
2023-04-27T18:44:41.789Z,7.84
2023-04-27T18:47:08.470Z,7.87
2023-04-27T18:49:35.157Z,7.64
2023-04-27T18:52:01.936Z,7.94
2023-04-27T18:54:28.727Z,8.09
2023-04-27T18:56:55.966Z,7.91
2023-04-27T18:59:22.686Z,7.76
2023-04-27T19:01:49.407Z,7.49
2023-04-27T19:04:16.698Z,8.07
2023-04-27T19:06:43.618Z,7.94
2023-04-27T19:09:10.317Z,7.72
2023-04-27T19:11:37.012Z,7.98
2023-04-27T19:14:03.725Z,8.08
2023-04-27T19:16:30.526Z,7.74
2023-04-27T19:18:57.312Z,7.48
2023-04-27T19:21:24.149Z,7.99
2023-04-27T19:23:51.263Z,7.57
2023-04-27T19:26:17.966Z,7.90
2023-04-27T19:28:44.755Z,8.15
2023-04-27T19:31:11.583Z,7.92
2023-04-27T19:33:38.414Z,8.04
2023-04-27T19:36:05.329Z,7.32
2023-04-27T19:38:32.185Z,7.95
2023-04-27T19:40:58.886Z,7.96
2023-04-27T19:43:25.605Z,8.10
2023-04-27T19:45:52.320Z,7.97
2023-04-27T19:48:18.965Z,7.78
2023-04-27T19:50:45.830Z,7.88
2023-04-27T19:53:12.501Z,8.16
2023-04-27T19:55:40.494Z,8.19
2023-04-27T19:58:07.307Z,8.05
2023-04-27T20:00:34.307Z,8.33
2023-04-27T20:03:01.317Z,8.23
2023-04-27T20:05:28.493Z,8.53
2023-04-27T20:07:55.521Z,8.01
2023-04-27T20:10:22.355Z,8.31
2023-04-27T20:12:56.592Z,8.60
2023-04-27T20:15:24.451Z,7.97
2023-04-27T20:17:51.906Z,8.36
2023-04-27T20:20:19.370Z,8.29
2023-04-27T20:22:46.126Z,8.62
2023-04-27T20:25:14.741Z,8.54
2023-04-27T20:27:41.935Z,8.23
2023-04-27T20:30:09.369Z,8.29
2023-04-27T20:32:36.484Z,8.26
2023-04-27T20:35:04.923Z,8.17
2023-04-27T20:37:32.784Z,8.42
2023-04-27T20:39:59.555Z,8.43
2023-04-27T20:42:26.349Z,8.49
2023-04-27T20:44:54.899Z,8.51
2023-04-27T20:47:22.021Z,7.91
2023-04-27T20:49:48.980Z,8.17
2023-04-27T20:52:15.812Z,8.36
2023-04-27T20:54:42.535Z,8.16
2023-04-27T20:57:13.544Z,8.22
2023-04-27T20:59:41.150Z,8.21
2023-04-27T21:02:08.411Z,8.06
2023-04-27T21:04:35.275Z,8.09
2023-04-27T21:07:02.073Z,8.35
2023-04-27T21:09:28.789Z,8.21
2023-04-27T21:11:55.530Z,8.07
2023-04-27T21:14:22.170Z,7.97
2023-04-27T21:16:49.024Z,8.13
2023-04-27T21:19:16.736Z,8.34
2023-04-27T21:21:43.378Z,8.06
2023-04-27T21:24:10.428Z,8.03
2023-04-27T21:26:37.330Z,8.15
2023-04-27T21:29:05.987Z,7.87
2023-04-27T21:31:33.783Z,8.14
2023-04-27T21:34:00.889Z,8.43
2023-04-27T21:36:27.821Z,8.34
2023-04-27T21:38:54.672Z,8.08
2023-04-27T21:41:21.576Z,8.26
2023-04-27T21:43:48.292Z,8.15
2023-04-27T21:46:14.995Z,8.26
2023-04-27T21:48:41.661Z,8.17
2023-04-27T21:51:08.412Z,8.44
2023-04-27T21:53:35.093Z,8.25
2023-04-27T21:56:01.781Z,8.21
2023-04-27T21:58:28.670Z,8.23
2023-04-27T22:00:55.371Z,8.47
2023-04-27T22:03:22.758Z,8.49
2023-04-27T22:05:50.347Z,8.38
2023-04-27T22:08:17.517Z,8.21
2023-04-27T22:10:44.884Z,8.42
2023-04-27T22:13:18.819Z,8.46
2023-04-27T22:15:47.115Z,8.52
2023-04-27T22:18:15.044Z,8.26
2023-04-27T22:20:42.461Z,8.22
2023-04-27T22:23:09.678Z,8.47
2023-04-27T22:25:36.464Z,8.23
2023-04-27T22:28:03.137Z,7.95
2023-04-27T22:30:30.473Z,8.33
2023-04-27T22:32:57.707Z,8.14
2023-04-27T22:35:26.952Z,8.33
2023-04-27T22:37:58.063Z,8.54
2023-04-27T22:40:24.954Z,8.32
2023-04-27T22:42:52.071Z,7.51
2023-04-27T22:45:18.793Z,7.93
2023-04-27T22:47:46.130Z,8.20
2023-04-27T22:50:13.396Z,8.52
2023-04-27T22:52:42.417Z,8.26
2023-04-27T22:55:10.309Z,8.50
2023-04-27T22:57:38.212Z,8.30
2023-04-27T23:00:05.709Z,8.35
2023-04-27T23:02:32.591Z,7.97
2023-04-27T23:04:59.376Z,8.22
2023-04-27T23:07:26.064Z,8.45
2023-04-27T23:09:53.078Z,8.20
2023-04-27T23:12:20.820Z,8.26
2023-04-27T23:14:47.559Z,8.28
2023-04-27T23:17:17.167Z,8.18
2023-04-27T23:19:43.847Z,8.03
2023-04-27T23:22:10.586Z,8.33
2023-04-27T23:24:37.236Z,8.11
2023-04-27T23:27:04.090Z,8.40
2023-04-27T23:29:31.387Z,8.22
2023-04-27T23:32:04.711Z,8.12
2023-04-27T23:34:34.247Z,8.46
2023-04-27T23:37:01.058Z,8.40
2023-04-27T23:39:28.264Z,8.59
2023-04-27T23:41:54.964Z,8.35
2023-04-27T23:44:21.607Z,8.19
2023-04-27T23:46:48.291Z,8.30
2023-04-27T23:49:15.590Z,8.07
2023-04-27T23:51:42.244Z,8.25
2023-04-27T23:54:08.950Z,8.49
2023-04-27T23:56:35.649Z,8.29
2023-04-27T23:59:02.357Z,8.43
